Vaduz, Liechtenstein

10:15 PM CEST on July 25, 2016 (GMT +0200)
IOBERLAN3 | | Change Station

Elev 1690 ft 47.15 °N, 9.52 °E | Updated 7 minutes ago

Light Rain Showers
Light Showers Rain
66.0 °F
Feels Like 66.0 °F
N
0.0
Wind Variable Wind from SW
Gusts 0.0 mph

Today
High -- | Low -- °F
--% Chance of Precip.
Yesterday
High -- | Low -- °F
Precip. -- in
Pressure 30.12 in
Visibility 3.7 miles
Clouds
Dew Point 62 °F
Humidity 86%
Rainfall 0.43 in
Snow Depth Not available.
5:52 AM 9:03 PM
Waning Gibbous, 63% visible
METAR LSZR 251950Z AUTO VRB01KT 6000 R10/0900U -SHRA BKN/// 21/18 Q1020 RERA
Pressure 30.12 in
Visibility 3.7 miles
Clouds
Dew Point 62 °F
Humidity 86%
Rainfall 0.43 in
Snow Depth Not available.
5:52 AM 9:03 PM
Waning Gibbous, 63% visible
METAR LSZR 251950Z AUTO VRB01KT 6000 R10/0900U -SHRA BKN/// 21/18 Q1020 RERA

10-Day Weather Forecast

×

Almanac

Astronomy

Jul. 25, 2016 Rise Set
Actual Time
Civil Twilight
Nautical Twilight
Astronomical Twilight
Moon
Length of Visible Light
Length of Day
Tomorrow will be .
, % of the Moon is Illuminated

Today's Extremes

Country Highs Country Lows

Community

WunderPhotos

Upload Photos

1,927,405 photos uploaded!

WunderBlog® & News

Nearby

Air Quality

  Air Quality AQ Index Pollutant
Not available.

Snow Depth

Station Depth Elevation

Earthquake Activity

City Distance Mag. Time & Date
Minimum magnitude displayed is 2.5.

Coastal Water Temperatures

Place Temperature

Stations

Nearby Weather Stations

Station Location Temp. Windchill Dew Point Humidity Wind Precip. Elev Updated Type